sensor_id;sensor_type;location;lat;lon;timestamp;P1;durP1;ratioP1;P2;durP2;ratioP2
26562;SDS011;14217;50.986;5.826;2024-02-04T00:03:16;0.28;;;0.20;;
26562;SDS011;14217;50.986;5.826;2024-02-04T00:08:18;0.47;;;0.20;;
26562;SDS011;14217;50.986;5.826;2024-02-04T00:13:20;0.30;;;0.30;;
26562;SDS011;14217;50.986;5.826;2024-02-04T00:18:22;0.50;;;0.40;;
26562;SDS011;14217;50.986;5.826;2024-02-04T00:23:24;0.50;;;0.20;;
26562;SDS011;14217;50.986;5.826;2024-02-04T00:28:26;2.08;;;0.17;;
26562;SDS011;14217;50.986;5.826;2024-02-04T00:33:31;8.35;;;0.25;;
26562;SDS011;14217;50.986;5.826;2024-02-04T00:38:33;1.10;;;0.30;;
26562;SDS011;14217;50.986;5.826;2024-02-04T00:43:35;0.20;;;0.20;;
26562;SDS011;14217;50.986;5.826;2024-02-04T00:48:37;0.20;;;0.20;;
26562;SDS011;14217;50.986;5.826;2024-02-04T00:53:45;1.15;;;0.47;;
26562;SDS011;14217;50.986;5.826;2024-02-04T00:58:47;0.45;;;0.35;;
26562;SDS011;14217;50.986;5.826;2024-02-04T01:03:49;0.30;;;0.30;;
26562;SDS011;14217;50.986;5.826;2024-02-04T01:08:52;1.63;;;0.20;;
26562;SDS011;14217;50.986;5.826;2024-02-04T01:13:54;0.70;;;0.15;;
26562;SDS011;14217;50.986;5.826;2024-02-04T01:18:56;0.55;;;0.30;;
26562;SDS011;14217;50.986;5.826;2024-02-04T01:23:58;0.10;;;0.10;;
26562;SDS011;14217;50.986;5.826;2024-02-04T01:29:00;0.77;;;0.20;;
26562;SDS011;14217;50.986;5.826;2024-02-04T01:34:03;0.20;;;0.20;;
26562;SDS011;14217;50.986;5.826;2024-02-04T01:39:05;0.03;;;0.03;;
26562;SDS011;14217;50.986;5.826;2024-02-04T01:44:08;0.20;;;0.20;;
26562;SDS011;14217;50.986;5.826;2024-02-04T01:49:11;0.17;;;0.17;;
26562;SDS011;14217;50.986;5.826;2024-02-04T01:54:14;0.15;;;0.13;;
26562;SDS011;14217;50.986;5.826;2024-02-04T01:59:16;0.25;;;0.13;;
26562;SDS011;14217;50.986;5.826;2024-02-04T02:04:19;0.17;;;0.15;;
26562;SDS011;14217;50.986;5.826;2024-02-04T02:09:22;0.10;;;0.05;;
26562;SDS011;14217;50.986;5.826;2024-02-04T02:14:25;0.20;;;0.20;;
26562;SDS011;14217;50.986;5.826;2024-02-04T02:19:35;0.20;;;0.10;;
26562;SDS011;14217;50.986;5.826;2024-02-04T02:24:46;0.20;;;0.20;;
26562;SDS011;14217;50.986;5.826;2024-02-04T02:29:48;0.00;;;0.00;;
26562;SDS011;14217;50.986;5.826;2024-02-04T02:34:50;0.55;;;0.13;;
26562;SDS011;14217;50.986;5.826;2024-02-04T02:39:57;0.10;;;0.10;;
26562;SDS011;14217;50.986;5.826;2024-02-04T02:45:03;0.20;;;0.10;;
26562;SDS011;14217;50.986;5.826;2024-02-04T02:50:07;0.10;;;0.10;;
26562;SDS011;14217;50.986;5.826;2024-02-04T02:55:10;0.28;;;0.13;;
26562;SDS011;14217;50.986;5.826;2024-02-04T03:00:12;0.10;;;0.10;;
26562;SDS011;14217;50.986;5.826;2024-02-04T03:05:15;0.10;;;0.10;;
26562;SDS011;14217;50.986;5.826;2024-02-04T03:10:17;0.10;;;0.10;;
26562;SDS011;14217;50.986;5.826;2024-02-04T03:15:20;0.73;;;0.10;;
26562;SDS011;14217;50.986;5.826;2024-02-04T03:20:22;0.25;;;0.25;;
26562;SDS011;14217;50.986;5.826;2024-02-04T03:25:24;0.90;;;0.45;;
26562;SDS011;14217;50.986;5.826;2024-02-04T03:30:28;0.10;;;0.10;;
26562;SDS011;14217;50.986;5.826;2024-02-04T03:35:30;0.30;;;0.20;;
26562;SDS011;14217;50.986;5.826;2024-02-04T03:40:32;0.10;;;0.10;;
26562;SDS011;14217;50.986;5.826;2024-02-04T03:45:35;0.10;;;0.10;;
26562;SDS011;14217;50.986;5.826;2024-02-04T03:50:37;0.10;;;0.10;;
26562;SDS011;14217;50.986;5.826;2024-02-04T03:55:39;0.28;;;0.28;;
26562;SDS011;14217;50.986;5.826;2024-02-04T04:00:41;0.30;;;0.20;;
26562;SDS011;14217;50.986;5.826;2024-02-04T04:05:43;0.40;;;0.08;;
26562;SDS011;14217;50.986;5.826;2024-02-04T04:10:46;0.20;;;0.20;;
26562;SDS011;14217;50.986;5.826;2024-02-04T04:15:48;0.10;;;0.10;;
26562;SDS011;14217;50.986;5.826;2024-02-04T04:20:50;0.82;;;0.30;;
26562;SDS011;14217;50.986;5.826;2024-02-04T04:25:52;0.20;;;0.13;;
26562;SDS011;14217;50.986;5.826;2024-02-04T04:30:55;0.20;;;0.10;;
26562;SDS011;14217;50.986;5.826;2024-02-04T04:35:57;4.72;;;0.20;;
26562;SDS011;14217;50.986;5.826;2024-02-04T04:40:59;0.35;;;0.30;;
26562;SDS011;14217;50.986;5.826;2024-02-04T04:46:01;0.55;;;0.47;;
26562;SDS011;14217;50.986;5.826;2024-02-04T04:51:03;0.20;;;0.20;;
26562;SDS011;14217;50.986;5.826;2024-02-04T04:56:05;0.10;;;0.10;;
26562;SDS011;14217;50.986;5.826;2024-02-04T05:01:08;0.68;;;0.20;;
26562;SDS011;14217;50.986;5.826;2024-02-04T05:06:10;0.22;;;0.22;;
26562;SDS011;14217;50.986;5.826;2024-02-04T05:11:12;0.45;;;0.17;;
26562;SDS011;14217;50.986;5.826;2024-02-04T05:16:14;1.13;;;0.20;;
26562;SDS011;14217;50.986;5.826;2024-02-04T05:21:16;0.82;;;0.20;;
26562;SDS011;14217;50.986;5.826;2024-02-04T05:26:18;0.90;;;0.20;;
26562;SDS011;14217;50.986;5.826;2024-02-04T05:31:21;0.43;;;0.30;;
26562;SDS011;14217;50.986;5.826;2024-02-04T05:36:23;0.45;;;0.22;;
26562;SDS011;14217;50.986;5.826;2024-02-04T05:41:25;0.10;;;0.10;;
26562;SDS011;14217;50.986;5.826;2024-02-04T05:46:27;0.35;;;0.32;;
26562;SDS011;14217;50.986;5.826;2024-02-04T05:51:31;0.30;;;0.20;;
26562;SDS011;14217;50.986;5.826;2024-02-04T05:56:34;0.00;;;0.00;;
26562;SDS011;14217;50.986;5.826;2024-02-04T06:01:36;0.10;;;0.10;;
26562;SDS011;14217;50.986;5.826;2024-02-04T06:06:38;0.20;;;0.15;;
26562;SDS011;14217;50.986;5.826;2024-02-04T06:11:40;0.25;;;0.25;;
26562;SDS011;14217;50.986;5.826;2024-02-04T06:16:46;0.35;;;0.10;;
26562;SDS011;14217;50.986;5.826;2024-02-04T06:21:48;0.35;;;0.30;;
26562;SDS011;14217;50.986;5.826;2024-02-04T06:26:50;0.10;;;0.10;;
26562;SDS011;14217;50.986;5.826;2024-02-04T06:31:52;0.35;;;0.17;;
26562;SDS011;14217;50.986;5.826;2024-02-04T06:36:55;0.10;;;0.10;;
26562;SDS011;14217;50.986;5.826;2024-02-04T06:41:57;0.10;;;0.10;;
26562;SDS011;14217;50.986;5.826;2024-02-04T06:46:59;1.13;;;0.10;;
26562;SDS011;14217;50.986;5.826;2024-02-04T06:52:01;0.00;;;0.00;;
26562;SDS011;14217;50.986;5.826;2024-02-04T06:57:04;0.30;;;0.13;;
26562;SDS011;14217;50.986;5.826;2024-02-04T07:02:06;0.10;;;0.10;;
26562;SDS011;14217;50.986;5.826;2024-02-04T07:07:08;0.10;;;0.10;;
26562;SDS011;14217;50.986;5.826;2024-02-04T07:12:10;0.10;;;0.10;;
26562;SDS011;14217;50.986;5.826;2024-02-04T07:17:12;0.00;;;0.00;;
26562;SDS011;14217;50.986;5.826;2024-02-04T07:22:14;0.10;;;0.10;;
26562;SDS011;14217;50.986;5.826;2024-02-04T07:27:17;0.30;;;0.10;;
26562;SDS011;14217;50.986;5.826;2024-02-04T07:32:19;0.00;;;0.00;;
26562;SDS011;14217;50.986;5.826;2024-02-04T07:37:21;0.00;;;0.00;;
26562;SDS011;14217;50.986;5.826;2024-02-04T07:42:23;2.63;;;0.17;;
26562;SDS011;14217;50.986;5.826;2024-02-04T07:47:26;0.05;;;0.05;;
26562;SDS011;14217;50.986;5.826;2024-02-04T07:52:28;0.10;;;0.10;;
26562;SDS011;14217;50.986;5.826;2024-02-04T07:57:30;1.35;;;0.10;;
26562;SDS011;14217;50.986;5.826;2024-02-04T08:02:33;1.45;;;0.10;;
26562;SDS011;14217;50.986;5.826;2024-02-04T08:07:35;0.10;;;0.10;;
26562;SDS011;14217;50.986;5.826;2024-02-04T08:12:38;0.20;;;0.00;;
26562;SDS011;14217;50.986;5.826;2024-02-04T08:17:40;0.10;;;0.10;;
26562;SDS011;14217;50.986;5.826;2024-02-04T08:22:42;0.15;;;0.10;;
26562;SDS011;14217;50.986;5.826;2024-02-04T08:27:44;0.08;;;0.08;;
26562;SDS011;14217;50.986;5.826;2024-02-04T08:32:46;0.03;;;0.03;;
26562;SDS011;14217;50.986;5.826;2024-02-04T08:37:49;0.00;;;0.00;;
26562;SDS011;14217;50.986;5.826;2024-02-04T08:42:51;1.75;;;0.63;;
26562;SDS011;14217;50.986;5.826;2024-02-04T08:47:53;0.73;;;0.30;;
26562;SDS011;14217;50.986;5.826;2024-02-04T08:52:55;0.00;;;0.00;;
26562;SDS011;14217;50.986;5.826;2024-02-04T08:57:57;0.10;;;0.10;;
26562;SDS011;14217;50.986;5.826;2024-02-04T09:03:03;0.98;;;0.40;;
26562;SDS011;14217;50.986;5.826;2024-02-04T09:08:05;0.10;;;0.10;;
26562;SDS011;14217;50.986;5.826;2024-02-04T09:13:07;0.20;;;0.20;;
26562;SDS011;14217;50.986;5.826;2024-02-04T09:18:09;0.10;;;0.05;;
26562;SDS011;14217;50.986;5.826;2024-02-04T09:23:12;0.28;;;0.10;;
26562;SDS011;14217;50.986;5.826;2024-02-04T09:28:14;2.22;;;0.98;;
26562;SDS011;14217;50.986;5.826;2024-02-04T09:33:16;1.30;;;0.57;;
26562;SDS011;14217;50.986;5.826;2024-02-04T09:38:19;2.08;;;0.40;;
26562;SDS011;14217;50.986;5.826;2024-02-04T09:43:22;1.75;;;0.73;;
26562;SDS011;14217;50.986;5.826;2024-02-04T09:48:26;10.05;;;1.13;;
26562;SDS011;14217;50.986;5.826;2024-02-04T09:53:33;2.42;;;1.00;;
26562;SDS011;14217;50.986;5.826;2024-02-04T09:58:37;2.47;;;1.00;;
26562;SDS011;14217;50.986;5.826;2024-02-04T10:03:39;4.07;;;0.70;;
26562;SDS011;14217;50.986;5.826;2024-02-04T10:08:42;2.38;;;0.82;;
26562;SDS011;14217;50.986;5.826;2024-02-04T10:13:48;3.80;;;0.75;;
26562;SDS011;14217;50.986;5.826;2024-02-04T10:18:51;1.55;;;0.60;;
26562;SDS011;14217;50.986;5.826;2024-02-04T10:23:55;1.50;;;0.43;;
26562;SDS011;14217;50.986;5.826;2024-02-04T10:28:58;2.45;;;0.68;;
26562;SDS011;14217;50.986;5.826;2024-02-04T10:34:00;0.32;;;0.30;;
26562;SDS011;14217;50.986;5.826;2024-02-04T10:39:03;0.32;;;0.20;;
26562;SDS011;14217;50.986;5.826;2024-02-04T10:44:06;0.60;;;0.40;;
26562;SDS011;14217;50.986;5.826;2024-02-04T10:49:10;2.00;;;0.40;;
26562;SDS011;14217;50.986;5.826;2024-02-04T10:54:16;0.47;;;0.40;;
26562;SDS011;14217;50.986;5.826;2024-02-04T10:59:22;2.70;;;0.43;;
26562;SDS011;14217;50.986;5.826;2024-02-04T11:04:25;0.30;;;0.30;;
26562;SDS011;14217;50.986;5.826;2024-02-04T11:09:29;0.30;;;0.30;;
26562;SDS011;14217;50.986;5.826;2024-02-04T11:14:31;4.38;;;0.95;;
26562;SDS011;14217;50.986;5.826;2024-02-04T11:19:59;5.03;;;0.40;;
26562;SDS011;14217;50.986;5.826;2024-02-04T11:30:36;0.93;;;0.30;;
26562;SDS011;14217;50.986;5.826;2024-02-04T11:35:38;0.50;;;0.20;;
26562;SDS011;14217;50.986;5.826;2024-02-04T11:40:41;0.00;;;0.00;;
26562;SDS011;14217;50.986;5.826;2024-02-04T11:45:43;0.50;;;0.22;;
26562;SDS011;14217;50.986;5.826;2024-02-04T11:50:53;0.93;;;0.47;;
26562;SDS011;14217;50.986;5.826;2024-02-04T11:55:55;0.75;;;0.28;;
26562;SDS011;14217;50.986;5.826;2024-02-04T12:00:58;1.35;;;0.10;;
26562;SDS011;14217;50.986;5.826;2024-02-04T12:06:00;0.20;;;0.20;;
26562;SDS011;14217;50.986;5.826;2024-02-04T12:11:04;0.60;;;0.30;;
26562;SDS011;14217;50.986;5.826;2024-02-04T12:16:06;0.30;;;0.30;;
26562;SDS011;14217;50.986;5.826;2024-02-04T12:21:10;0.38;;;0.20;;
26562;SDS011;14217;50.986;5.826;2024-02-04T12:26:12;0.20;;;0.20;;
26562;SDS011;14217;50.986;5.826;2024-02-04T12:36:21;0.70;;;0.17;;
26562;SDS011;14217;50.986;5.826;2024-02-04T12:41:23;1.40;;;0.80;;
26562;SDS011;14217;50.986;5.826;2024-02-04T12:46:26;1.88;;;0.20;;
26562;SDS011;14217;50.986;5.826;2024-02-04T12:51:29;2.08;;;0.60;;
26562;SDS011;14217;50.986;5.826;2024-02-04T12:56:48;6.15;;;0.47;;
26562;SDS011;14217;50.986;5.826;2024-02-04T13:01:53;2.38;;;1.00;;
26562;SDS011;14217;50.986;5.826;2024-02-04T13:12:11;7.28;;;0.70;;
26562;SDS011;14217;50.986;5.826;2024-02-04T13:17:16;3.95;;;1.05;;
26562;SDS011;14217;50.986;5.826;2024-02-04T13:22:18;9.40;;;0.40;;
26562;SDS011;14217;50.986;5.826;2024-02-04T13:27:20;3.40;;;0.60;;
26562;SDS011;14217;50.986;5.826;2024-02-04T13:32:23;2.13;;;0.35;;
26562;SDS011;14217;50.986;5.826;2024-02-04T13:37:25;1.45;;;0.45;;
26562;SDS011;14217;50.986;5.826;2024-02-04T13:42:27;3.00;;;0.38;;
26562;SDS011;14217;50.986;5.826;2024-02-04T13:47:30;0.80;;;0.30;;
26562;SDS011;14217;50.986;5.826;2024-02-04T13:52:32;1.13;;;0.28;;
26562;SDS011;14217;50.986;5.826;2024-02-04T13:57:34;1.58;;;0.28;;
26562;SDS011;14217;50.986;5.826;2024-02-04T14:02:37;1.35;;;0.20;;
26562;SDS011;14217;50.986;5.826;2024-02-04T14:07:40;0.20;;;0.20;;
26562;SDS011;14217;50.986;5.826;2024-02-04T14:12:42;1.35;;;0.60;;
26562;SDS011;14217;50.986;5.826;2024-02-04T14:17:47;0.30;;;0.20;;
26562;SDS011;14217;50.986;5.826;2024-02-04T14:22:49;0.40;;;0.28;;
26562;SDS011;14217;50.986;5.826;2024-02-04T14:27:52;5.35;;;0.15;;
26562;SDS011;14217;50.986;5.826;2024-02-04T14:32:54;0.30;;;0.17;;
26562;SDS011;14217;50.986;5.826;2024-02-04T14:37:58;0.40;;;0.20;;
26562;SDS011;14217;50.986;5.826;2024-02-04T14:42:59;12.48;;;0.32;;
26562;SDS011;14217;50.986;5.826;2024-02-04T14:48:04;6.07;;;0.60;;
26562;SDS011;14217;50.986;5.826;2024-02-04T14:53:06;12.55;;;0.55;;
26562;SDS011;14217;50.986;5.826;2024-02-04T14:58:08;1.88;;;0.57;;
26562;SDS011;14217;50.986;5.826;2024-02-04T15:03:10;0.17;;;0.17;;
26562;SDS011;14217;50.986;5.826;2024-02-04T15:08:15;1.50;;;0.30;;
26562;SDS011;14217;50.986;5.826;2024-02-04T15:13:18;0.40;;;0.20;;
26562;SDS011;14217;50.986;5.826;2024-02-04T15:18:20;0.60;;;0.28;;
26562;SDS011;14217;50.986;5.826;2024-02-04T15:23:22;1.65;;;0.50;;
26562;SDS011;14217;50.986;5.826;2024-02-04T15:28:24;1.33;;;0.20;;
26562;SDS011;14217;50.986;5.826;2024-02-04T15:33:27;1.38;;;0.30;;
26562;SDS011;14217;50.986;5.826;2024-02-04T15:38:30;2.38;;;0.52;;
26562;SDS011;14217;50.986;5.826;2024-02-04T15:43:32;1.75;;;0.20;;
26562;SDS011;14217;50.986;5.826;2024-02-04T15:48:35;0.20;;;0.20;;
26562;SDS011;14217;50.986;5.826;2024-02-04T15:53:40;0.85;;;0.38;;
26562;SDS011;14217;50.986;5.826;2024-02-04T15:58:42;2.15;;;0.30;;
26562;SDS011;14217;50.986;5.826;2024-02-04T16:03:45;2.08;;;0.52;;
26562;SDS011;14217;50.986;5.826;2024-02-04T16:08:47;0.38;;;0.20;;
26562;SDS011;14217;50.986;5.826;2024-02-04T16:13:51;7.32;;;0.30;;
26562;SDS011;14217;50.986;5.826;2024-02-04T16:18:54;1.10;;;0.32;;
26562;SDS011;14217;50.986;5.826;2024-02-04T16:23:58;0.30;;;0.20;;
26562;SDS011;14217;50.986;5.826;2024-02-04T16:29:00;2.58;;;0.20;;
26562;SDS011;14217;50.986;5.826;2024-02-04T16:34:02;1.25;;;0.17;;
26562;SDS011;14217;50.986;5.826;2024-02-04T16:39:04;0.30;;;0.30;;
26562;SDS011;14217;50.986;5.826;2024-02-04T16:44:07;0.10;;;0.10;;
26562;SDS011;14217;50.986;5.826;2024-02-04T16:49:10;2.10;;;0.35;;
26562;SDS011;14217;50.986;5.826;2024-02-04T16:54:20;0.40;;;0.20;;
26562;SDS011;14217;50.986;5.826;2024-02-04T16:59:28;0.25;;;0.20;;
26562;SDS011;14217;50.986;5.826;2024-02-04T17:04:31;0.70;;;0.28;;
26562;SDS011;14217;50.986;5.826;2024-02-04T17:09:33;0.52;;;0.22;;
26562;SDS011;14217;50.986;5.826;2024-02-04T17:14:35;1.15;;;0.20;;
26562;SDS011;14217;50.986;5.826;2024-02-04T17:19:39;0.57;;;0.30;;
26562;SDS011;14217;50.986;5.826;2024-02-04T17:24:50;0.25;;;0.10;;
26562;SDS011;14217;50.986;5.826;2024-02-04T17:29:56;0.10;;;0.10;;
26562;SDS011;14217;50.986;5.826;2024-02-04T17:35:02;0.17;;;0.17;;
26562;SDS011;14217;50.986;5.826;2024-02-04T17:40:05;0.25;;;0.10;;
26562;SDS011;14217;50.986;5.826;2024-02-04T17:45:08;0.35;;;0.30;;
26562;SDS011;14217;50.986;5.826;2024-02-04T17:50:11;0.85;;;0.30;;
26562;SDS011;14217;50.986;5.826;2024-02-04T17:55:14;1.55;;;0.25;;
26562;SDS011;14217;50.986;5.826;2024-02-04T18:00:16;1.17;;;0.55;;
26562;SDS011;14217;50.986;5.826;2024-02-04T18:05:18;1.38;;;0.28;;
26562;SDS011;14217;50.986;5.826;2024-02-04T18:10:21;0.38;;;0.20;;
26562;SDS011;14217;50.986;5.826;2024-02-04T18:15:23;1.65;;;0.20;;
26562;SDS011;14217;50.986;5.826;2024-02-04T18:20:25;1.98;;;0.63;;
26562;SDS011;14217;50.986;5.826;2024-02-04T18:25:27;1.27;;;0.30;;
26562;SDS011;14217;50.986;5.826;2024-02-04T18:30:30;1.60;;;0.47;;
26562;SDS011;14217;50.986;5.826;2024-02-04T18:35:32;12.95;;;0.60;;
26562;SDS011;14217;50.986;5.826;2024-02-04T18:40:34;8.40;;;0.45;;
26562;SDS011;14217;50.986;5.826;2024-02-04T18:45:38;1.23;;;0.60;;
26562;SDS011;14217;50.986;5.826;2024-02-04T18:50:40;1.27;;;0.20;;
26562;SDS011;14217;50.986;5.826;2024-02-04T18:55:43;2.22;;;0.77;;
26562;SDS011;14217;50.986;5.826;2024-02-04T19:00:45;1.98;;;0.40;;
26562;SDS011;14217;50.986;5.826;2024-02-04T19:05:47;1.70;;;0.60;;
26562;SDS011;14217;50.986;5.826;2024-02-04T19:10:50;2.45;;;0.50;;
26562;SDS011;14217;50.986;5.826;2024-02-04T19:15:53;2.53;;;0.60;;
26562;SDS011;14217;50.986;5.826;2024-02-04T19:20:55;20.92;;;1.08;;
26562;SDS011;14217;50.986;5.826;2024-02-04T19:25:57;4.95;;;1.23;;
26562;SDS011;14217;50.986;5.826;2024-02-04T19:30:59;20.48;;;1.30;;
26562;SDS011;14217;50.986;5.826;2024-02-04T19:36:01;2.40;;;1.05;;
26562;SDS011;14217;50.986;5.826;2024-02-04T19:41:03;1.55;;;0.80;;
26562;SDS011;14217;50.986;5.826;2024-02-04T19:46:05;8.35;;;1.60;;
26562;SDS011;14217;50.986;5.826;2024-02-04T19:51:08;3.92;;;1.48;;
26562;SDS011;14217;50.986;5.826;2024-02-04T19:56:10;3.60;;;1.20;;
26562;SDS011;14217;50.986;5.826;2024-02-04T20:01:12;5.35;;;2.78;;
26562;SDS011;14217;50.986;5.826;2024-02-04T20:06:15;4.00;;;1.55;;
26562;SDS011;14217;50.986;5.826;2024-02-04T20:11:17;2.65;;;1.40;;
26562;SDS011;14217;50.986;5.826;2024-02-04T20:16:19;5.68;;;1.83;;
26562;SDS011;14217;50.986;5.826;2024-02-04T20:21:21;7.15;;;2.40;;
26562;SDS011;14217;50.986;5.826;2024-02-04T20:26:23;2.13;;;0.93;;
26562;SDS011;14217;50.986;5.826;2024-02-04T20:31:26;2.55;;;1.25;;
26562;SDS011;14217;50.986;5.826;2024-02-04T20:36:28;5.07;;;0.90;;
26562;SDS011;14217;50.986;5.826;2024-02-04T20:41:31;4.32;;;1.15;;
26562;SDS011;14217;50.986;5.826;2024-02-04T20:46:33;3.88;;;1.20;;
26562;SDS011;14217;50.986;5.826;2024-02-04T20:51:35;12.15;;;0.85;;
26562;SDS011;14217;50.986;5.826;2024-02-04T20:56:40;7.32;;;1.17;;
26562;SDS011;14217;50.986;5.826;2024-02-04T21:01:47;5.10;;;0.98;;
26562;SDS011;14217;50.986;5.826;2024-02-04T21:06:52;7.82;;;0.68;;
26562;SDS011;14217;50.986;5.826;2024-02-04T21:11:54;10.00;;;0.95;;
26562;SDS011;14217;50.986;5.826;2024-02-04T21:16:56;3.20;;;0.63;;
26562;SDS011;14217;50.986;5.826;2024-02-04T21:21:58;4.45;;;0.60;;
26562;SDS011;14217;50.986;5.826;2024-02-04T21:27:00;1.85;;;0.52;;
26562;SDS011;14217;50.986;5.826;2024-02-04T21:32:02;4.18;;;0.65;;
26562;SDS011;14217;50.986;5.826;2024-02-04T21:37:05;2.83;;;0.70;;
26562;SDS011;14217;50.986;5.826;2024-02-04T21:42:07;0.98;;;0.65;;
26562;SDS011;14217;50.986;5.826;2024-02-04T21:47:09;1.02;;;0.40;;
26562;SDS011;14217;50.986;5.826;2024-02-04T21:52:12;0.50;;;0.35;;
26562;SDS011;14217;50.986;5.826;2024-02-04T21:57:15;8.35;;;0.47;;
26562;SDS011;14217;50.986;5.826;2024-02-04T22:02:17;2.60;;;0.63;;
26562;SDS011;14217;50.986;5.826;2024-02-04T22:07:19;3.45;;;0.40;;
26562;SDS011;14217;50.986;5.826;2024-02-04T22:12:21;0.60;;;0.40;;
26562;SDS011;14217;50.986;5.826;2024-02-04T22:17:23;3.00;;;0.57;;
26562;SDS011;14217;50.986;5.826;2024-02-04T22:22:27;0.65;;;0.43;;
26562;SDS011;14217;50.986;5.826;2024-02-04T22:27:29;0.52;;;0.40;;
26562;SDS011;14217;50.986;5.826;2024-02-04T22:32:31;1.40;;;0.50;;
26562;SDS011;14217;50.986;5.826;2024-02-04T22:37:33;1.83;;;0.50;;
26562;SDS011;14217;50.986;5.826;2024-02-04T22:42:36;2.45;;;0.77;;
26562;SDS011;14217;50.986;5.826;2024-02-04T22:47:38;1.15;;;0.30;;
26562;SDS011;14217;50.986;5.826;2024-02-04T22:52:41;0.98;;;0.35;;
26562;SDS011;14217;50.986;5.826;2024-02-04T22:57:43;2.13;;;0.45;;
26562;SDS011;14217;50.986;5.826;2024-02-04T23:02:45;1.88;;;0.73;;
26562;SDS011;14217;50.986;5.826;2024-02-04T23:07:47;5.30;;;0.30;;
26562;SDS011;14217;50.986;5.826;2024-02-04T23:12:53;0.30;;;0.30;;
26562;SDS011;14217;50.986;5.826;2024-02-04T23:17:57;1.13;;;0.50;;
26562;SDS011;14217;50.986;5.826;2024-02-04T23:22:59;1.10;;;0.55;;
26562;SDS011;14217;50.986;5.826;2024-02-04T23:28:01;8.88;;;0.70;;
26562;SDS011;14217;50.986;5.826;2024-02-04T23:33:03;0.77;;;0.40;;
26562;SDS011;14217;50.986;5.826;2024-02-04T23:38:05;2.13;;;0.50;;
26562;SDS011;14217;50.986;5.826;2024-02-04T23:43:07;0.80;;;0.32;;
26562;SDS011;14217;50.986;5.826;2024-02-04T23:48:09;1.55;;;0.63;;
26562;SDS011;14217;50.986;5.826;2024-02-04T23:53:11;4.63;;;0.60;;
26562;SDS011;14217;50.986;5.826;2024-02-04T23:58:14;0.57;;;0.43;;
